CYYE

Fort Nelson Airport

Fort Nelson, British Columbia, Canada
TAF CYYE 231838Z 2319/2407 VRB03KT P6SM SCT210 FM232300 VRB03KT P6SM BKN120 RMK NXT FCST BY 240100Z
Issued Valid From Valid To
Apr-23 @ 18:38 UTC
(4 hours ago)
Apr-23 @ 19:00 UTC
(4 hours ago)
Apr-24 @ 07:00 UTC
(in 8 hours)
Apr-23 @ 19:00 to Apr-23 @ 23:00
TAF CYYE 231838Z 2319/2407 VRB03KT P6SM SCT210
Wind Visibility Clouds
Variable at 3 knots Greater than 6 miles
  • Scattered at 21,000' AGL
From Apr-23 @ 23:00 to Apr-24 @ 07:00
FM232300 VRB03KT P6SM BKN120 RMK NXT FCST BY 240100Z
Wind Visibility Clouds
Variable at 3 knots Greater than 6 miles
  • Broken at 12,000' AGL
TAF CYYE 231838Z 2319/2407 VRB03KT P6SM SCT210 FM232300 VRB03KT P6SM BKN120 RMK NXT FCST BY 240100Z
Issued Apr-23 @ 18:38 UTC
(4 hours ago)
Valid From Apr-23 @ 19:00 UTC
(4 hours ago)
Valid To Apr-24 @ 07:00 UTC
(in 8 hours)
Apr-23 @ 19:00 - Apr-23 @ 23:00
Wind Visibility
Variable at 3 knots Greater than 6 miles
Clouds
  • Scattered at 21,000' AGL
From Apr-23 @ 23:00 - Apr-24 @ 07:00
Wind Visibility
Variable at 3 knots Greater than 6 miles
Clouds
  • Broken at 12,000' AGL